createdAt,value
2019-05-21T00:00:41.584Z,64.00
2019-05-21T00:03:08.401Z,68.90
2019-05-21T00:05:34.977Z,60.77
2019-05-21T00:08:01.609Z,55.80
2019-05-21T00:10:28.220Z,55.87
2019-05-21T00:12:54.923Z,56.70
2019-05-21T00:15:21.644Z,56.47
2019-05-21T00:17:48.359Z,64.40
2019-05-21T00:20:15.303Z,72.67
2019-05-21T00:22:41.992Z,66.10
2019-05-21T00:25:08.970Z,57.73
2019-05-21T00:27:35.600Z,59.00
2019-05-21T00:30:39.548Z,62.03
2019-05-21T00:33:43.588Z,57.80
2019-05-21T00:36:49.385Z,58.13
2019-05-21T00:39:53.331Z,62.87
2019-05-21T00:42:28.373Z,60.23
2019-05-21T00:44:54.968Z,61.63
2019-05-21T00:47:21.602Z,59.60
2019-05-21T00:49:48.374Z,59.47
2019-05-21T00:52:15.064Z,53.17
2019-05-21T00:54:41.849Z,64.30
2019-05-21T00:57:08.480Z,61.47
2019-05-21T00:59:35.309Z,56.73
2019-05-21T01:02:02.189Z,60.30
2019-05-21T01:04:28.985Z,61.40
2019-05-21T01:06:55.620Z,56.10
2019-05-21T01:09:22.262Z,57.20
2019-05-21T01:11:49.016Z,52.30
2019-05-21T01:14:15.595Z,59.90
2019-05-21T01:16:42.200Z,57.50
2019-05-21T01:19:08.903Z,53.37
2019-05-21T01:21:35.539Z,55.27
2019-05-21T01:24:02.643Z,57.90
2019-05-21T01:26:29.254Z,50.20
2019-05-21T01:28:55.835Z,48.40
2019-05-21T01:31:22.453Z,49.67
2019-05-21T01:33:49.156Z,50.60
2019-05-21T01:36:15.739Z,49.03
2019-05-21T01:38:42.366Z,47.57
2019-05-21T01:41:09.014Z,49.00
2019-05-21T01:43:35.626Z,45.13
2019-05-21T01:46:02.340Z,43.40
2019-05-21T01:48:28.951Z,45.60
2019-05-21T01:50:55.592Z,43.00
2019-05-21T01:53:22.309Z,44.23
2019-05-21T01:55:49.053Z,44.33
2019-05-21T01:58:15.700Z,41.50
2019-05-21T02:00:42.726Z,40.93
2019-05-21T02:03:09.319Z,44.10
2019-05-21T02:05:36.003Z,39.40
2019-05-21T02:08:02.841Z,41.47
2019-05-21T02:10:29.625Z,38.73
2019-05-21T02:12:56.212Z,38.57
2019-05-21T02:15:23.184Z,43.80
2019-05-21T02:17:49.854Z,42.70
2019-05-21T02:20:16.600Z,40.63
2019-05-21T02:22:43.217Z,37.80
2019-05-21T02:25:09.933Z,39.27
2019-05-21T02:27:36.681Z,38.70
2019-05-21T02:30:04.942Z,42.10
2019-05-21T02:32:32.219Z,42.90
2019-05-21T02:34:58.872Z,43.00
2019-05-21T02:37:25.590Z,41.40
2019-05-21T02:39:52.230Z,41.60
2019-05-21T02:42:18.828Z,46.63
2019-05-21T02:44:45.962Z,42.53
2019-05-21T02:47:12.565Z,47.20
2019-05-21T02:49:39.451Z,44.87
2019-05-21T02:52:06.157Z,50.80
2019-05-21T02:54:41.125Z,50.00
2019-05-21T02:57:01.610Z,44.90
2019-05-21T02:59:28.222Z,50.53
2019-05-21T03:02:00.981Z,44.27
2019-05-21T03:04:27.600Z,45.97
2019-05-21T03:07:14.094Z,47.77
2019-05-21T03:09:40.718Z,41.87
2019-05-21T03:12:07.475Z,46.10
2019-05-21T03:14:34.205Z,44.53
2019-05-21T03:17:00.808Z,44.63
2019-05-21T03:19:27.892Z,48.00
2019-05-21T03:21:54.879Z,48.43
2019-05-21T03:24:22.085Z,44.87
2019-05-21T03:26:48.665Z,41.97
2019-05-21T03:29:15.600Z,49.80
2019-05-21T03:31:42.292Z,46.63
2019-05-21T03:34:09.058Z,48.10
2019-05-21T03:36:35.663Z,45.83
2019-05-21T03:39:04.317Z,50.00
2019-05-21T03:41:30.897Z,50.13
2019-05-21T03:43:57.680Z,45.43
2019-05-21T03:46:24.592Z,43.30
2019-05-21T03:48:51.218Z,40.53
2019-05-21T03:51:17.940Z,46.40
2019-05-21T03:53:44.540Z,64.10
2019-05-21T03:56:11.160Z,43.97
2019-05-21T03:58:37.894Z,42.43
2019-05-21T04:01:04.545Z,38.77
2019-05-21T04:03:31.372Z,46.87
2019-05-21T04:05:58.411Z,43.23
2019-05-21T04:08:25.113Z,61.03
2019-05-21T04:10:52.024Z,48.70
2019-05-21T04:13:18.629Z,55.40
2019-05-21T04:15:54.824Z,49.00
2019-05-21T04:18:25.522Z,62.90
2019-05-21T04:20:52.252Z,38.93
2019-05-21T04:23:18.970Z,67.67
2019-05-21T04:25:45.620Z,38.80
2019-05-21T04:28:12.328Z,39.33
2019-05-21T04:30:38.949Z,41.73
2019-05-21T04:33:05.624Z,38.53
2019-05-21T04:35:32.246Z,33.67
2019-05-21T04:37:58.841Z,37.17
2019-05-21T04:40:25.625Z,38.70
2019-05-21T04:42:52.275Z,36.67
2019-05-21T04:45:19.179Z,41.47
2019-05-21T04:47:45.973Z,36.27
2019-05-21T04:50:12.694Z,33.87
2019-05-21T04:52:39.355Z,36.37
2019-05-21T04:55:06.447Z,32.07
2019-05-21T04:57:37.043Z,31.10
2019-05-21T05:00:02.016Z,23.90
2019-05-21T05:02:29.303Z,28.40
2019-05-21T05:04:58.308Z,26.10
2019-05-21T05:07:28.136Z,24.07
2019-05-21T05:09:53.784Z,27.93
2019-05-21T05:12:20.629Z,24.17
2019-05-21T05:14:47.319Z,24.80
2019-05-21T05:17:14.027Z,29.17
2019-05-21T05:19:40.684Z,25.13
2019-05-21T05:22:07.394Z,25.97
2019-05-21T05:24:36.995Z,31.10
2019-05-21T05:27:02.602Z,22.53
2019-05-21T05:29:29.237Z,30.83
2019-05-21T05:31:55.852Z,26.87
2019-05-21T05:34:22.530Z,25.50
2019-05-21T05:36:49.137Z,28.23
2019-05-21T05:39:15.834Z,26.17
2019-05-21T05:41:42.535Z,25.53
2019-05-21T05:44:09.155Z,25.60
2019-05-21T05:46:35.739Z,32.67
2019-05-21T05:49:08.789Z,21.30
2019-05-21T05:51:35.371Z,24.53
2019-05-21T05:54:02.014Z,24.17
2019-05-21T05:56:28.990Z,24.07
2019-05-21T05:58:55.890Z,22.20
2019-05-21T06:01:23.368Z,24.10
2019-05-21T06:03:49.970Z,19.30
2019-05-21T06:06:17.092Z,21.33
2019-05-21T06:08:43.953Z,24.30
2019-05-21T06:11:10.553Z,20.43
2019-05-21T06:13:37.261Z,26.43
2019-05-21T06:16:03.880Z,22.10
2019-05-21T06:18:30.699Z,21.50
2019-05-21T06:20:57.320Z,19.97
2019-05-21T06:23:24.028Z,16.67
2019-05-21T06:25:50.760Z,18.53
2019-05-21T06:28:17.409Z,18.17
2019-05-21T06:30:44.110Z,14.80
2019-05-21T06:33:11.345Z,21.50
2019-05-21T06:35:38.416Z,17.60
2019-05-21T06:38:17.490Z,18.50
2019-05-21T06:40:40.133Z,17.63
2019-05-21T06:43:07.991Z,13.77
2019-05-21T06:45:35.550Z,14.33
2019-05-21T06:50:37.628Z,23.73
2019-05-21T06:53:04.676Z,16.60
2019-05-21T06:55:31.733Z,16.40
2019-05-21T06:57:58.336Z,13.70
2019-05-21T07:00:25.301Z,17.23
2019-05-21T07:02:52.055Z,11.17
2019-05-21T07:05:18.769Z,11.30
2019-05-21T07:07:45.496Z,11.63
2019-05-21T07:10:12.670Z,13.70
2019-05-21T07:12:39.264Z,10.70
2019-05-21T07:15:06.268Z,10.70
2019-05-21T07:17:33.027Z,10.23
2019-05-21T07:19:59.716Z,11.13
2019-05-21T07:22:26.360Z,17.47
2019-05-21T07:24:52.994Z,9.20
2019-05-21T07:27:19.576Z,12.20
2019-05-21T07:29:46.188Z,13.63
2019-05-21T07:32:12.788Z,19.07
2019-05-21T07:34:39.364Z,14.50
2019-05-21T07:37:06.340Z,11.07
2019-05-21T07:39:33.037Z,16.87
2019-05-21T07:41:59.686Z,12.20
2019-05-21T07:44:27.149Z,17.13
2019-05-21T07:46:53.763Z,12.80
2019-05-21T07:49:20.371Z,15.53
2019-05-21T07:51:47.063Z,18.83
2019-05-21T07:54:13.687Z,7.30
2019-05-21T07:56:40.277Z,9.37
2019-05-21T07:59:08.390Z,10.20
2019-05-21T08:01:34.980Z,9.90
2019-05-21T08:04:01.610Z,21.13
2019-05-21T08:06:28.390Z,8.03
2019-05-21T08:09:11.762Z,5.77
2019-05-21T08:11:23.731Z,6.90
2019-05-21T08:13:50.660Z,7.53
2019-05-21T08:16:17.625Z,8.93
2019-05-21T08:18:44.272Z,7.50
2019-05-21T08:21:11.103Z,7.40
2019-05-21T08:23:38.053Z,7.00
2019-05-21T08:26:04.704Z,7.30
2019-05-21T08:28:31.363Z,9.23
2019-05-21T08:31:01.912Z,8.73
2019-05-21T08:33:26.515Z,5.93
2019-05-21T08:35:53.349Z,6.53
2019-05-21T08:38:20.061Z,9.50
2019-05-21T08:40:46.681Z,5.70
2019-05-21T08:43:13.651Z,5.07
2019-05-21T08:45:40.374Z,4.10
2019-05-21T08:48:07.012Z,4.60
2019-05-21T08:50:33.665Z,6.07
2019-05-21T08:53:00.248Z,4.13
2019-05-21T08:55:26.871Z,5.03
2019-05-21T08:58:06.444Z,6.60
2019-05-21T09:00:22.929Z,5.53
2019-05-21T09:02:50.021Z,5.87
2019-05-21T09:05:17.257Z,7.30
2019-05-21T09:07:44.018Z,5.37
2019-05-21T09:10:11.340Z,5.10
2019-05-21T09:12:38.137Z,8.97
2019-05-21T09:15:05.329Z,7.93
2019-05-21T09:17:32.156Z,7.60
2019-05-21T09:19:58.784Z,9.97
2019-05-21T09:22:25.557Z,5.43
2019-05-21T09:24:52.339Z,10.50
2019-05-21T09:27:19.293Z,4.27
2019-05-21T09:29:45.887Z,3.93
2019-05-21T09:32:12.925Z,6.33
2019-05-21T09:34:48.618Z,4.70
2019-05-21T09:37:19.331Z,7.47
2019-05-21T09:39:36.673Z,7.33
2019-05-21T09:42:03.284Z,5.47
2019-05-21T09:44:29.899Z,7.97
2019-05-21T09:46:56.634Z,6.43
2019-05-21T09:49:23.628Z,9.47
2019-05-21T09:51:50.242Z,5.90
2019-05-21T09:54:17.156Z,12.80
2019-05-21T09:56:44.676Z,12.70
2019-05-21T09:59:21.081Z,11.80
2019-05-21T10:01:49.466Z,11.20
2019-05-21T10:04:16.143Z,9.73
2019-05-21T10:06:42.856Z,18.47
2019-05-21T10:09:15.381Z,5.63
2019-05-21T10:11:42.289Z,7.57
2019-05-21T10:14:09.042Z,11.67
2019-05-21T10:16:35.678Z,4.97
2019-05-21T10:19:02.347Z,6.33
2019-05-21T10:21:29.010Z,6.00
2019-05-21T10:23:55.658Z,4.20
2019-05-21T10:26:22.490Z,6.33
2019-05-21T10:28:49.079Z,3.80
2019-05-21T10:31:15.739Z,4.27
2019-05-21T10:33:42.852Z,7.67
2019-05-21T10:36:09.469Z,5.77
2019-05-21T10:38:36.561Z,6.03
2019-05-21T10:41:03.465Z,4.97
2019-05-21T10:43:30.128Z,4.00
2019-05-21T10:45:57.097Z,4.30
2019-05-21T10:48:23.723Z,3.70
2019-05-21T10:50:50.350Z,8.13
2019-05-21T10:53:17.000Z,9.67
2019-05-21T10:55:44.103Z,4.53
2019-05-21T10:58:10.940Z,5.07
2019-05-21T11:00:38.073Z,7.90
2019-05-21T11:03:27.997Z,3.97
2019-05-21T11:06:08.874Z,6.97
2019-05-21T11:08:25.034Z,5.17
2019-05-21T11:10:52.006Z,6.73
2019-05-21T11:13:18.812Z,5.63
2019-05-21T11:15:45.406Z,6.33
2019-05-21T11:18:13.229Z,7.10
2019-05-21T11:20:40.098Z,4.83
2019-05-21T11:23:06.707Z,4.93
2019-05-21T11:25:33.337Z,5.87
2019-05-21T11:28:00.036Z,9.33
2019-05-21T11:30:26.837Z,4.20
2019-05-21T11:32:53.441Z,3.87
2019-05-21T11:35:20.232Z,5.40
2019-05-21T11:37:47.965Z,8.70
2019-05-21T11:40:15.842Z,5.43
2019-05-21T11:42:42.427Z,9.43
2019-05-21T11:45:10.427Z,3.53
2019-05-21T11:47:37.150Z,6.50
2019-05-21T11:50:04.533Z,4.90
2019-05-21T11:52:31.149Z,4.43
2019-05-21T11:54:57.757Z,8.60
2019-05-21T11:57:24.410Z,3.73
2019-05-21T11:59:51.406Z,6.37
2019-05-21T12:02:18.064Z,6.37
2019-05-21T12:04:44.935Z,5.50
2019-05-21T12:07:11.550Z,3.73
2019-05-21T12:09:38.230Z,4.20
2019-05-21T12:12:05.044Z,4.17
2019-05-21T12:14:31.629Z,4.17
2019-05-21T12:16:58.286Z,5.23
2019-05-21T12:19:24.883Z,3.87
2019-05-21T12:21:51.483Z,5.83
2019-05-21T12:24:18.613Z,4.20
2019-05-21T12:26:45.246Z,4.47
2019-05-21T12:29:12.032Z,10.00
2019-05-21T12:31:38.628Z,7.87
2019-05-21T12:34:05.258Z,6.00
2019-05-21T12:36:31.990Z,8.37
2019-05-21T12:39:13.077Z,6.03
2019-05-21T12:41:27.395Z,3.67
2019-05-21T12:43:54.015Z,5.57
2019-05-21T12:46:20.661Z,6.47
2019-05-21T12:48:47.655Z,7.67
2019-05-21T12:51:14.428Z,8.07
2019-05-21T12:53:41.252Z,8.90
2019-05-21T12:56:07.913Z,8.00
2019-05-21T12:58:34.556Z,7.83
2019-05-21T13:01:01.292Z,10.60
2019-05-21T13:03:28.021Z,7.73
2019-05-21T13:05:54.750Z,6.47
2019-05-21T13:08:21.387Z,11.37
2019-05-21T13:10:47.991Z,12.93
2019-05-21T13:13:14.580Z,8.20
2019-05-21T13:15:41.159Z,6.10
2019-05-21T13:18:08.039Z,6.57
2019-05-21T13:20:34.651Z,6.77
2019-05-21T13:23:01.358Z,8.90
2019-05-21T13:25:28.751Z,8.60
2019-05-21T13:27:57.667Z,7.50
2019-05-21T13:30:24.557Z,8.43
2019-05-21T13:32:51.476Z,8.73
2019-05-21T13:35:18.104Z,7.27
2019-05-21T13:37:45.074Z,13.47
2019-05-21T13:40:13.026Z,12.30
2019-05-21T13:42:39.841Z,8.63
2019-05-21T13:45:06.852Z,5.63
2019-05-21T13:47:33.549Z,5.27
2019-05-21T13:50:00.166Z,15.90
2019-05-21T13:52:26.810Z,5.37
2019-05-21T13:54:53.488Z,7.47
2019-05-21T13:57:20.084Z,6.83
2019-05-21T13:59:46.996Z,5.43
2019-05-21T14:02:14.651Z,6.37
2019-05-21T14:04:41.753Z,6.60
2019-05-21T14:07:08.600Z,7.20
2019-05-21T14:09:35.181Z,19.77
2019-05-21T14:12:01.768Z,11.47
2019-05-21T14:14:28.408Z,6.40
2019-05-21T14:16:55.133Z,15.23
2019-05-21T14:19:21.995Z,9.40
2019-05-21T14:21:48.689Z,7.23
2019-05-21T14:24:15.572Z,7.50
2019-05-21T14:26:42.198Z,9.00
2019-05-21T14:29:08.851Z,17.53
2019-05-21T14:31:35.464Z,8.83
2019-05-21T14:34:02.158Z,8.90
2019-05-21T14:36:28.775Z,8.20
2019-05-21T14:38:55.380Z,11.53
2019-05-21T14:41:21.972Z,10.70
2019-05-21T14:43:48.596Z,34.70
2019-05-21T14:46:15.249Z,10.30
2019-05-21T14:48:41.858Z,10.53
2019-05-21T14:51:13.151Z,15.10
2019-05-21T14:53:37.399Z,10.60
2019-05-21T14:56:04.120Z,8.27
2019-05-21T14:58:30.735Z,10.20
2019-05-21T15:00:57.414Z,11.43
2019-05-21T15:03:25.515Z,9.60
2019-05-21T15:05:52.491Z,10.00
2019-05-21T15:08:19.122Z,9.73
2019-05-21T15:10:49.034Z,14.43
2019-05-21T15:13:14.962Z,10.80
2019-05-21T15:15:41.705Z,14.37
2019-05-21T15:18:08.478Z,10.33
2019-05-21T15:20:59.169Z,9.37
2019-05-21T15:23:26.197Z,11.23
2019-05-21T15:25:53.121Z,8.13
2019-05-21T15:28:19.723Z,10.57
2019-05-21T15:30:46.354Z,10.80
2019-05-21T15:33:12.959Z,8.20
2019-05-21T15:35:39.777Z,10.30
2019-05-21T15:38:06.514Z,11.37
2019-05-21T15:40:33.299Z,9.70
2019-05-21T15:42:59.976Z,11.43
2019-05-21T15:45:26.766Z,9.40
2019-05-21T15:47:53.553Z,9.80
2019-05-21T15:50:20.199Z,12.63
2019-05-21T15:52:46.966Z,12.43
2019-05-21T15:55:14.306Z,14.80
2019-05-21T15:57:40.956Z,14.03
2019-05-21T16:00:08.901Z,18.30
2019-05-21T16:02:35.587Z,11.83
2019-05-21T16:05:02.811Z,12.00
2019-05-21T16:07:29.833Z,8.47
2019-05-21T16:09:56.677Z,9.30
2019-05-21T16:12:23.492Z,10.73
2019-05-21T16:14:50.434Z,9.73
2019-05-21T16:17:19.143Z,10.43
2019-05-21T16:19:45.754Z,7.57
2019-05-21T16:22:14.387Z,6.80
2019-05-21T16:24:40.990Z,7.57
2019-05-21T16:27:07.798Z,7.27
2019-05-21T16:29:34.473Z,12.67
2019-05-21T16:32:01.269Z,12.67
2019-05-21T16:34:31.802Z,9.13
2019-05-21T16:36:57.863Z,9.53
2019-05-21T16:39:24.852Z,8.10
2019-05-21T16:41:51.720Z,12.30
2019-05-21T16:44:18.440Z,11.23
2019-05-21T16:46:45.558Z,12.57
2019-05-21T16:49:14.345Z,8.13
2019-05-21T16:51:43.446Z,12.80
2019-05-21T16:54:09.605Z,15.63
2019-05-21T16:56:36.235Z,9.93
2019-05-21T16:59:03.535Z,12.53
2019-05-21T17:01:31.071Z,11.10
2019-05-21T17:04:00.214Z,14.47
2019-05-21T17:06:26.470Z,12.00
2019-05-21T17:08:55.263Z,11.90
2019-05-21T17:11:22.277Z,10.20
2019-05-21T17:13:49.064Z,11.03
2019-05-21T17:16:15.833Z,19.60
2019-05-21T17:18:42.684Z,14.93
2019-05-21T17:21:09.413Z,12.77
2019-05-21T17:23:36.076Z,9.50
2019-05-21T17:26:02.907Z,12.43
2019-05-21T17:28:29.578Z,14.83
2019-05-21T17:30:56.274Z,10.80
2019-05-21T17:33:23.092Z,14.03
2019-05-21T17:35:49.798Z,8.70
2019-05-21T17:38:16.437Z,14.60
2019-05-21T17:40:43.369Z,12.90
2019-05-21T17:43:10.152Z,12.17
2019-05-21T17:45:36.787Z,7.83
2019-05-21T17:48:03.941Z,8.00
2019-05-21T17:50:30.700Z,7.90
2019-05-21T17:52:57.488Z,9.30
2019-05-21T17:55:24.634Z,11.80
2019-05-21T17:57:51.677Z,12.67
2019-05-21T18:00:23.368Z,7.67
2019-05-21T18:02:50.408Z,9.73
2019-05-21T18:05:18.157Z,9.10
2019-05-21T18:07:44.833Z,11.53
2019-05-21T18:10:13.084Z,9.63
2019-05-21T18:12:41.452Z,10.73
2019-05-21T18:15:09.955Z,11.20
2019-05-21T18:17:37.034Z,10.90
2019-05-21T18:20:06.313Z,9.33
2019-05-21T18:22:33.174Z,13.63
2019-05-21T18:25:00.346Z,10.17
2019-05-21T18:27:28.301Z,11.83
2019-05-21T18:29:55.380Z,11.23
2019-05-21T18:32:22.098Z,10.07
2019-05-21T18:34:48.801Z,12.60
2019-05-21T18:37:16.033Z,13.00
2019-05-21T18:39:42.725Z,11.63
2019-05-21T18:42:21.777Z,10.17
2019-05-21T18:44:38.596Z,11.87
2019-05-21T18:47:05.443Z,16.43
2019-05-21T18:49:32.064Z,12.37
2019-05-21T18:51:58.877Z,11.03
2019-05-21T18:54:25.579Z,11.40
2019-05-21T18:56:52.409Z,16.90
2019-05-21T18:59:19.172Z,16.03
2019-05-21T19:01:45.796Z,15.30
2019-05-21T19:04:12.437Z,16.07
2019-05-21T19:06:39.619Z,10.60
2019-05-21T19:09:06.697Z,12.57
2019-05-21T19:11:33.413Z,14.10
2019-05-21T19:14:00.323Z,15.77
2019-05-21T19:16:29.913Z,15.03
2019-05-21T19:18:56.209Z,17.00
2019-05-21T19:21:23.076Z,18.50
2019-05-21T19:23:50.579Z,15.93
2019-05-21T19:26:17.314Z,15.67
2019-05-21T19:28:43.981Z,17.37
2019-05-21T19:31:10.980Z,19.40
2019-05-21T19:33:37.807Z,22.47
2019-05-21T19:36:04.484Z,15.27
2019-05-21T19:38:31.217Z,20.27
2019-05-21T19:40:57.834Z,21.13
2019-05-21T19:43:24.809Z,19.90
2019-05-21T19:45:51.924Z,23.77
2019-05-21T19:48:18.579Z,25.83
2019-05-21T19:50:45.160Z,20.10
2019-05-21T19:53:12.008Z,21.53
2019-05-21T19:55:38.917Z,21.30
2019-05-21T19:58:05.816Z,20.33
2019-05-21T20:00:34.596Z,22.03
2019-05-21T20:03:01.309Z,23.97
2019-05-21T20:05:28.913Z,19.70
2019-05-21T20:07:56.802Z,25.13
2019-05-21T20:10:23.631Z,28.33
2019-05-21T20:12:52.305Z,27.70
2019-05-21T20:15:19.836Z,23.13
2019-05-21T20:17:51.001Z,31.27
2019-05-21T20:20:19.116Z,34.03
2019-05-21T20:22:46.601Z,29.40
2019-05-21T20:25:15.873Z,28.40
2019-05-21T20:27:42.919Z,21.40
2019-05-21T20:30:13.494Z,16.37
2019-05-21T20:32:42.159Z,24.97
2019-05-21T20:35:11.364Z,16.77
2019-05-21T20:37:40.117Z,15.93
2019-05-21T20:40:09.978Z,17.17
2019-05-21T20:42:37.251Z,18.87
2019-05-21T20:45:04.196Z,14.47
2019-05-21T20:47:31.281Z,18.30
2019-05-21T20:49:57.964Z,17.80
2019-05-21T20:52:25.304Z,22.03
2019-05-21T20:54:55.468Z,17.30
2019-05-21T20:57:23.786Z,18.00
2019-05-21T20:59:50.641Z,18.33
2019-05-21T21:02:17.973Z,26.03
2019-05-21T21:04:46.178Z,18.87
2019-05-21T21:07:13.437Z,15.10
2019-05-21T21:09:42.216Z,17.03
2019-05-21T21:12:10.961Z,17.33
2019-05-21T21:14:37.925Z,12.83
2019-05-21T21:17:05.495Z,11.87
2019-05-21T21:19:32.888Z,12.87
2019-05-21T21:21:59.655Z,15.23
2019-05-21T21:24:26.583Z,12.80
2019-05-21T21:26:53.744Z,13.43
2019-05-21T21:29:20.448Z,12.20
2019-05-21T21:31:47.289Z,17.30
2019-05-21T21:34:14.339Z,17.77
2019-05-21T21:36:41.087Z,18.57
2019-05-21T21:39:10.266Z,14.63
2019-05-21T21:41:39.020Z,16.40
2019-05-21T21:44:05.960Z,19.60
2019-05-21T21:46:32.921Z,18.30
2019-05-21T21:48:59.698Z,17.40
2019-05-21T21:51:26.583Z,18.40
2019-05-21T21:53:53.664Z,16.50
2019-05-21T21:56:20.880Z,15.00
2019-05-21T21:58:47.547Z,13.20
2019-05-21T22:01:38.255Z,12.37
2019-05-21T22:04:06.706Z,17.70
2019-05-21T22:06:36.320Z,21.03
2019-05-21T22:09:06.329Z,21.03
2019-05-21T22:11:34.226Z,18.77
2019-05-21T22:14:01.896Z,17.03
2019-05-21T22:16:29.162Z,21.30
2019-05-21T22:18:55.914Z,20.57
2019-05-21T22:21:23.234Z,25.47
2019-05-21T22:23:50.901Z,19.00
2019-05-21T22:26:20.368Z,25.00
2019-05-21T22:28:47.105Z,26.90
2019-05-21T22:31:13.842Z,26.03
2019-05-21T22:33:41.317Z,27.00
2019-05-21T22:36:09.152Z,30.40
2019-05-21T22:38:35.834Z,30.23
2019-05-21T22:41:02.601Z,29.00
2019-05-21T22:43:29.791Z,30.30
2019-05-21T22:45:56.531Z,26.87
2019-05-21T22:48:23.160Z,36.10
2019-05-21T22:50:49.739Z,32.97
2019-05-21T22:53:16.405Z,32.30
2019-05-21T22:55:43.003Z,33.57
2019-05-21T22:58:09.744Z,30.37
2019-05-21T23:00:37.028Z,32.90
2019-05-21T23:03:04.472Z,31.83
2019-05-21T23:05:31.892Z,41.13
2019-05-21T23:07:59.883Z,38.10
2019-05-21T23:10:27.285Z,38.43
2019-05-21T23:12:54.222Z,39.53
2019-05-21T23:15:25.547Z,37.37
2019-05-21T23:17:50.203Z,43.73
2019-05-21T23:20:18.309Z,63.93
2019-05-21T23:22:47.512Z,54.97
2019-05-21T23:25:14.709Z,49.97
2019-05-21T23:27:42.061Z,46.83
2019-05-21T23:30:11.643Z,46.80
2019-05-21T23:32:38.558Z,46.30
2019-05-21T23:35:05.742Z,59.90
2019-05-21T23:37:32.528Z,55.90
2019-05-21T23:40:00.238Z,55.97
2019-05-21T23:42:29.877Z,60.10
2019-05-21T23:44:56.319Z,68.17
2019-05-21T23:47:23.257Z,63.90
2019-05-21T23:49:50.245Z,71.13
2019-05-21T23:52:16.919Z,63.13
2019-05-21T23:54:43.641Z,69.50
2019-05-21T23:57:15.292Z,71.80
2019-05-21T23:59:42.551Z,67.40
